sensor_id;sensor_type;location;lat;lon;timestamp;temperature;humidity
27164;DHT22;14685;50.618;7.024;2023-11-19T00:00:33;12.30;99.90
27164;DHT22;14685;50.618;7.024;2023-11-19T00:03:01;12.30;99.90
27164;DHT22;14685;50.618;7.024;2023-11-19T00:05:29;12.30;99.90
27164;DHT22;14685;50.618;7.024;2023-11-19T00:07:57;12.30;99.90
27164;DHT22;14685;50.618;7.024;2023-11-19T00:10:24;12.30;99.90
27164;DHT22;14685;50.618;7.024;2023-11-19T00:12:53;12.20;99.90
27164;DHT22;14685;50.618;7.024;2023-11-19T00:15:20;12.20;99.90
27164;DHT22;14685;50.618;7.024;2023-11-19T00:17:51;12.20;99.90
27164;DHT22;14685;50.618;7.024;2023-11-19T00:20:19;12.30;99.90
27164;DHT22;14685;50.618;7.024;2023-11-19T00:22:47;12.30;99.90
27164;DHT22;14685;50.618;7.024;2023-11-19T00:25:20;12.30;99.90
27164;DHT22;14685;50.618;7.024;2023-11-19T00:27:49;12.40;99.90
27164;DHT22;14685;50.618;7.024;2023-11-19T00:30:17;12.40;99.90
27164;DHT22;14685;50.618;7.024;2023-11-19T00:32:44;12.40;99.90
27164;DHT22;14685;50.618;7.024;2023-11-19T00:35:12;12.40;99.90
27164;DHT22;14685;50.618;7.024;2023-11-19T00:37:42;12.40;99.90
27164;DHT22;14685;50.618;7.024;2023-11-19T00:40:10;12.40;99.90
27164;DHT22;14685;50.618;7.024;2023-11-19T00:42:38;12.40;99.90
27164;DHT22;14685;50.618;7.024;2023-11-19T00:45:05;12.40;99.90
27164;DHT22;14685;50.618;7.024;2023-11-19T00:47:37;12.50;99.90
27164;DHT22;14685;50.618;7.024;2023-11-19T00:50:06;12.50;99.90
27164;DHT22;14685;50.618;7.024;2023-11-19T00:52:34;12.60;99.90
27164;DHT22;14685;50.618;7.024;2023-11-19T00:55:00;12.50;99.90
27164;DHT22;14685;50.618;7.024;2023-11-19T00:57:27;12.60;99.90
27164;DHT22;14685;50.618;7.024;2023-11-19T00:59:54;12.70;99.90
27164;DHT22;14685;50.618;7.024;2023-11-19T01:02:22;12.70;99.90
27164;DHT22;14685;50.618;7.024;2023-11-19T01:04:50;12.60;99.90
27164;DHT22;14685;50.618;7.024;2023-11-19T01:07:17;12.60;99.90
27164;DHT22;14685;50.618;7.024;2023-11-19T01:09:44;12.60;99.90
27164;DHT22;14685;50.618;7.024;2023-11-19T01:12:11;12.50;99.90
27164;DHT22;14685;50.618;7.024;2023-11-19T01:14:39;12.60;99.90
27164;DHT22;14685;50.618;7.024;2023-11-19T01:17:06;12.60;99.90
27164;DHT22;14685;50.618;7.024;2023-11-19T01:19:33;12.60;99.90
27164;DHT22;14685;50.618;7.024;2023-11-19T01:22:01;12.60;99.90
27164;DHT22;14685;50.618;7.024;2023-11-19T01:24:30;12.60;99.90
27164;DHT22;14685;50.618;7.024;2023-11-19T01:26:58;12.50;99.90
27164;DHT22;14685;50.618;7.024;2023-11-19T01:29:26;12.60;99.90
27164;DHT22;14685;50.618;7.024;2023-11-19T01:31:53;12.60;99.90
27164;DHT22;14685;50.618;7.024;2023-11-19T01:34:22;12.60;99.90
27164;DHT22;14685;50.618;7.024;2023-11-19T01:36:49;12.60;99.90
27164;DHT22;14685;50.618;7.024;2023-11-19T01:39:16;12.60;99.90
27164;DHT22;14685;50.618;7.024;2023-11-19T01:41:43;12.60;99.90
27164;DHT22;14685;50.618;7.024;2023-11-19T01:44:10;12.60;99.90
27164;DHT22;14685;50.618;7.024;2023-11-19T01:46:41;12.60;99.90
27164;DHT22;14685;50.618;7.024;2023-11-19T01:49:10;12.60;99.90
27164;DHT22;14685;50.618;7.024;2023-11-19T01:51:39;12.60;99.90
27164;DHT22;14685;50.618;7.024;2023-11-19T01:54:07;12.60;99.90
27164;DHT22;14685;50.618;7.024;2023-11-19T01:56:36;12.70;99.90
27164;DHT22;14685;50.618;7.024;2023-11-19T01:59:04;12.70;99.90
27164;DHT22;14685;50.618;7.024;2023-11-19T02:01:32;12.60;99.90
27164;DHT22;14685;50.618;7.024;2023-11-19T02:04:01;12.70;99.90
27164;DHT22;14685;50.618;7.024;2023-11-19T02:06:30;12.70;99.90
27164;DHT22;14685;50.618;7.024;2023-11-19T02:08:59;12.70;99.90
27164;DHT22;14685;50.618;7.024;2023-11-19T02:11:29;12.70;99.90
27164;DHT22;14685;50.618;7.024;2023-11-19T02:13:57;12.70;99.90
27164;DHT22;14685;50.618;7.024;2023-11-19T02:16:24;12.70;99.90
27164;DHT22;14685;50.618;7.024;2023-11-19T02:18:51;12.70;99.90
27164;DHT22;14685;50.618;7.024;2023-11-19T02:21:18;12.70;99.90
27164;DHT22;14685;50.618;7.024;2023-11-19T02:23:45;12.80;99.90
27164;DHT22;14685;50.618;7.024;2023-11-19T02:28:49;12.80;99.90
27164;DHT22;14685;50.618;7.024;2023-11-19T02:31:16;12.80;99.90
27164;DHT22;14685;50.618;7.024;2023-11-19T02:33:44;12.90;99.90
27164;DHT22;14685;50.618;7.024;2023-11-19T02:36:11;12.90;99.90
27164;DHT22;14685;50.618;7.024;2023-11-19T02:38:38;12.90;99.90
27164;DHT22;14685;50.618;7.024;2023-11-19T02:41:06;12.80;99.90
27164;DHT22;14685;50.618;7.024;2023-11-19T02:43:34;12.80;99.90
27164;DHT22;14685;50.618;7.024;2023-11-19T02:46:03;12.90;99.90
27164;DHT22;14685;50.618;7.024;2023-11-19T02:48:41;12.80;99.90
27164;DHT22;14685;50.618;7.024;2023-11-19T02:51:10;12.80;99.90
27164;DHT22;14685;50.618;7.024;2023-11-19T02:53:37;12.80;99.90
27164;DHT22;14685;50.618;7.024;2023-11-19T02:56:07;12.80;99.90
27164;DHT22;14685;50.618;7.024;2023-11-19T02:58:53;12.80;99.90
27164;DHT22;14685;50.618;7.024;2023-11-19T03:01:24;12.80;99.90
27164;DHT22;14685;50.618;7.024;2023-11-19T03:04:01;12.90;99.90
27164;DHT22;14685;50.618;7.024;2023-11-19T03:06:30;12.90;99.90
27164;DHT22;14685;50.618;7.024;2023-11-19T03:08:57;12.90;99.90
27164;DHT22;14685;50.618;7.024;2023-11-19T03:11:27;12.90;99.90
27164;DHT22;14685;50.618;7.024;2023-11-19T03:13:55;12.90;99.90
27164;DHT22;14685;50.618;7.024;2023-11-19T03:16:23;12.90;99.90
27164;DHT22;14685;50.618;7.024;2023-11-19T03:18:50;12.90;99.90
27164;DHT22;14685;50.618;7.024;2023-11-19T03:21:17;12.90;99.90
27164;DHT22;14685;50.618;7.024;2023-11-19T03:23:44;12.90;99.90
27164;DHT22;14685;50.618;7.024;2023-11-19T03:26:11;13.00;99.90
27164;DHT22;14685;50.618;7.024;2023-11-19T03:28:38;13.00;99.90
27164;DHT22;14685;50.618;7.024;2023-11-19T03:31:05;13.00;99.90
27164;DHT22;14685;50.618;7.024;2023-11-19T03:33:35;13.10;99.90
27164;DHT22;14685;50.618;7.024;2023-11-19T03:36:05;13.10;99.90
27164;DHT22;14685;50.618;7.024;2023-11-19T03:38:32;13.10;99.90
27164;DHT22;14685;50.618;7.024;2023-11-19T03:40:59;13.20;99.90
27164;DHT22;14685;50.618;7.024;2023-11-19T03:43:26;13.20;99.90
27164;DHT22;14685;50.618;7.024;2023-11-19T03:45:54;13.20;99.90
27164;DHT22;14685;50.618;7.024;2023-11-19T03:48:22;13.30;99.90
27164;DHT22;14685;50.618;7.024;2023-11-19T03:50:51;13.30;99.90
27164;DHT22;14685;50.618;7.024;2023-11-19T03:53:19;13.40;99.90
27164;DHT22;14685;50.618;7.024;2023-11-19T03:55:46;13.30;99.90
27164;DHT22;14685;50.618;7.024;2023-11-19T03:58:13;13.30;99.90
27164;DHT22;14685;50.618;7.024;2023-11-19T04:00:41;13.40;99.90
27164;DHT22;14685;50.618;7.024;2023-11-19T04:03:08;13.40;99.90
27164;DHT22;14685;50.618;7.024;2023-11-19T04:05:35;13.40;99.90
27164;DHT22;14685;50.618;7.024;2023-11-19T04:08:02;13.40;99.90
27164;DHT22;14685;50.618;7.024;2023-11-19T04:10:29;13.40;99.90
27164;DHT22;14685;50.618;7.024;2023-11-19T04:12:57;13.30;99.90
27164;DHT22;14685;50.618;7.024;2023-11-19T04:15:24;13.50;99.90
27164;DHT22;14685;50.618;7.024;2023-11-19T04:17:51;13.50;99.90
27164;DHT22;14685;50.618;7.024;2023-11-19T04:20:18;13.50;99.90
27164;DHT22;14685;50.618;7.024;2023-11-19T04:22:45;13.50;99.90
27164;DHT22;14685;50.618;7.024;2023-11-19T04:25:13;13.60;99.90
27164;DHT22;14685;50.618;7.024;2023-11-19T04:27:42;13.60;99.90
27164;DHT22;14685;50.618;7.024;2023-11-19T04:30:09;13.60;99.90
27164;DHT22;14685;50.618;7.024;2023-11-19T04:32:38;13.60;99.90
27164;DHT22;14685;50.618;7.024;2023-11-19T04:35:07;13.60;99.90
27164;DHT22;14685;50.618;7.024;2023-11-19T04:37:34;13.60;99.90
27164;DHT22;14685;50.618;7.024;2023-11-19T04:40:02;13.60;99.90
27164;DHT22;14685;50.618;7.024;2023-11-19T04:42:29;13.60;99.90
27164;DHT22;14685;50.618;7.024;2023-11-19T04:44:58;13.60;99.90
27164;DHT22;14685;50.618;7.024;2023-11-19T04:47:24;13.60;99.90
27164;DHT22;14685;50.618;7.024;2023-11-19T04:49:52;13.60;99.90
27164;DHT22;14685;50.618;7.024;2023-11-19T04:52:18;13.60;99.90
27164;DHT22;14685;50.618;7.024;2023-11-19T04:54:45;13.60;99.90
27164;DHT22;14685;50.618;7.024;2023-11-19T04:57:12;13.60;99.90
27164;DHT22;14685;50.618;7.024;2023-11-19T04:59:39;13.50;99.90
27164;DHT22;14685;50.618;7.024;2023-11-19T05:02:06;13.50;99.90
27164;DHT22;14685;50.618;7.024;2023-11-19T05:04:34;13.60;99.90
27164;DHT22;14685;50.618;7.024;2023-11-19T05:07:01;13.70;99.90
27164;DHT22;14685;50.618;7.024;2023-11-19T05:09:31;13.60;99.90
27164;DHT22;14685;50.618;7.024;2023-11-19T05:11:58;13.60;99.90
27164;DHT22;14685;50.618;7.024;2023-11-19T05:14:26;13.60;99.90
27164;DHT22;14685;50.618;7.024;2023-11-19T05:16:53;13.60;99.90
27164;DHT22;14685;50.618;7.024;2023-11-19T05:19:20;13.60;99.90
27164;DHT22;14685;50.618;7.024;2023-11-19T05:21:48;13.60;99.90
27164;DHT22;14685;50.618;7.024;2023-11-19T05:24:19;13.60;99.90
27164;DHT22;14685;50.618;7.024;2023-11-19T05:26:46;13.60;99.90
27164;DHT22;14685;50.618;7.024;2023-11-19T05:29:13;13.60;99.90
27164;DHT22;14685;50.618;7.024;2023-11-19T05:31:42;13.60;99.90
27164;DHT22;14685;50.618;7.024;2023-11-19T05:34:11;13.60;99.90
27164;DHT22;14685;50.618;7.024;2023-11-19T05:36:38;13.60;99.90
27164;DHT22;14685;50.618;7.024;2023-11-19T05:39:06;13.60;99.90
27164;DHT22;14685;50.618;7.024;2023-11-19T05:41:33;13.60;99.90
27164;DHT22;14685;50.618;7.024;2023-11-19T05:44:00;13.60;99.90
27164;DHT22;14685;50.618;7.024;2023-11-19T05:46:27;13.60;99.90
27164;DHT22;14685;50.618;7.024;2023-11-19T05:48:54;13.60;99.90
27164;DHT22;14685;50.618;7.024;2023-11-19T05:51:21;13.60;99.90
27164;DHT22;14685;50.618;7.024;2023-11-19T05:53:50;13.60;99.90
27164;DHT22;14685;50.618;7.024;2023-11-19T05:56:17;13.60;99.90
27164;DHT22;14685;50.618;7.024;2023-11-19T05:58:48;13.60;99.90
27164;DHT22;14685;50.618;7.024;2023-11-19T06:01:16;13.60;99.90
27164;DHT22;14685;50.618;7.024;2023-11-19T06:03:43;13.60;99.90
27164;DHT22;14685;50.618;7.024;2023-11-19T06:06:16;13.60;99.90
27164;DHT22;14685;50.618;7.024;2023-11-19T06:08:43;13.60;99.90
27164;DHT22;14685;50.618;7.024;2023-11-19T06:11:11;13.60;99.90
27164;DHT22;14685;50.618;7.024;2023-11-19T06:13:45;13.60;99.90
27164;DHT22;14685;50.618;7.024;2023-11-19T06:16:13;13.70;99.90
27164;DHT22;14685;50.618;7.024;2023-11-19T06:18:40;13.60;99.90
27164;DHT22;14685;50.618;7.024;2023-11-19T06:21:08;13.60;99.90
27164;DHT22;14685;50.618;7.024;2023-11-19T06:23:35;13.60;99.90
27164;DHT22;14685;50.618;7.024;2023-11-19T06:26:02;13.60;99.90
27164;DHT22;14685;50.618;7.024;2023-11-19T06:28:29;13.60;99.90
27164;DHT22;14685;50.618;7.024;2023-11-19T06:30:56;13.60;99.90
27164;DHT22;14685;50.618;7.024;2023-11-19T06:33:24;13.50;99.90
27164;DHT22;14685;50.618;7.024;2023-11-19T06:35:52;13.50;99.90
27164;DHT22;14685;50.618;7.024;2023-11-19T06:38:19;13.50;99.90
27164;DHT22;14685;50.618;7.024;2023-11-19T06:40:48;13.50;99.90
27164;DHT22;14685;50.618;7.024;2023-11-19T06:43:20;13.50;99.90
27164;DHT22;14685;50.618;7.024;2023-11-19T06:45:51;13.50;99.90
27164;DHT22;14685;50.618;7.024;2023-11-19T06:48:18;13.50;99.90
27164;DHT22;14685;50.618;7.024;2023-11-19T06:50:45;13.50;99.90
27164;DHT22;14685;50.618;7.024;2023-11-19T06:53:12;13.40;99.90
27164;DHT22;14685;50.618;7.024;2023-11-19T06:55:39;13.50;99.90
27164;DHT22;14685;50.618;7.024;2023-11-19T06:58:06;13.50;99.90
27164;DHT22;14685;50.618;7.024;2023-11-19T07:00:33;13.50;99.90
27164;DHT22;14685;50.618;7.024;2023-11-19T07:03:03;13.40;99.90
27164;DHT22;14685;50.618;7.024;2023-11-19T07:05:30;13.40;99.90
27164;DHT22;14685;50.618;7.024;2023-11-19T07:07:57;13.40;99.90
27164;DHT22;14685;50.618;7.024;2023-11-19T07:10:24;13.40;99.90
27164;DHT22;14685;50.618;7.024;2023-11-19T07:12:51;13.40;99.90
27164;DHT22;14685;50.618;7.024;2023-11-19T07:15:18;13.50;99.90
27164;DHT22;14685;50.618;7.024;2023-11-19T07:17:45;13.50;99.90
27164;DHT22;14685;50.618;7.024;2023-11-19T07:20:12;13.50;99.90
27164;DHT22;14685;50.618;7.024;2023-11-19T07:22:45;13.40;99.90
27164;DHT22;14685;50.618;7.024;2023-11-19T07:25:15;13.40;99.90
27164;DHT22;14685;50.618;7.024;2023-11-19T07:27:42;13.40;99.90
27164;DHT22;14685;50.618;7.024;2023-11-19T07:30:09;13.40;99.90
27164;DHT22;14685;50.618;7.024;2023-11-19T07:32:36;13.40;99.90
27164;DHT22;14685;50.618;7.024;2023-11-19T07:35:06;13.40;99.90
27164;DHT22;14685;50.618;7.024;2023-11-19T07:37:33;13.40;99.90
27164;DHT22;14685;50.618;7.024;2023-11-19T07:40:00;13.40;99.90
27164;DHT22;14685;50.618;7.024;2023-11-19T07:42:27;13.40;99.90
27164;DHT22;14685;50.618;7.024;2023-11-19T07:44:55;13.50;99.90
27164;DHT22;14685;50.618;7.024;2023-11-19T07:47:23;13.50;99.90
27164;DHT22;14685;50.618;7.024;2023-11-19T07:49:50;13.50;99.90
27164;DHT22;14685;50.618;7.024;2023-11-19T07:52:17;13.50;99.90
27164;DHT22;14685;50.618;7.024;2023-11-19T07:54:48;13.60;99.90
27164;DHT22;14685;50.618;7.024;2023-11-19T07:57:16;13.70;99.90
27164;DHT22;14685;50.618;7.024;2023-11-19T07:59:44;13.70;99.90
27164;DHT22;14685;50.618;7.024;2023-11-19T08:02:11;13.80;99.90
27164;DHT22;14685;50.618;7.024;2023-11-19T08:04:38;13.90;99.90
27164;DHT22;14685;50.618;7.024;2023-11-19T08:07:07;13.90;99.90
27164;DHT22;14685;50.618;7.024;2023-11-19T08:09:33;14.00;99.90
27164;DHT22;14685;50.618;7.024;2023-11-19T08:12:00;14.10;99.90
27164;DHT22;14685;50.618;7.024;2023-11-19T08:14:27;14.20;99.90
27164;DHT22;14685;50.618;7.024;2023-11-19T08:16:54;14.40;99.90
27164;DHT22;14685;50.618;7.024;2023-11-19T08:19:21;14.50;99.90
27164;DHT22;14685;50.618;7.024;2023-11-19T08:21:50;14.70;99.90
27164;DHT22;14685;50.618;7.024;2023-11-19T08:24:19;14.80;99.90
27164;DHT22;14685;50.618;7.024;2023-11-19T08:26:46;15.00;99.90
27164;DHT22;14685;50.618;7.024;2023-11-19T08:29:28;15.10;99.90
27164;DHT22;14685;50.618;7.024;2023-11-19T08:31:55;15.20;99.90
27164;DHT22;14685;50.618;7.024;2023-11-19T08:34:22;15.20;99.90
27164;DHT22;14685;50.618;7.024;2023-11-19T08:36:50;15.30;99.90
27164;DHT22;14685;50.618;7.024;2023-11-19T08:39:21;15.40;99.90
27164;DHT22;14685;50.618;7.024;2023-11-19T08:41:48;15.50;99.90
27164;DHT22;14685;50.618;7.024;2023-11-19T08:44:16;15.50;99.90
27164;DHT22;14685;50.618;7.024;2023-11-19T08:46:47;15.60;99.90
27164;DHT22;14685;50.618;7.024;2023-11-19T08:49:15;15.70;99.90
27164;DHT22;14685;50.618;7.024;2023-11-19T08:51:44;15.70;99.90
27164;DHT22;14685;50.618;7.024;2023-11-19T08:54:12;15.60;99.90
27164;DHT22;14685;50.618;7.024;2023-11-19T08:56:39;15.50;99.90
27164;DHT22;14685;50.618;7.024;2023-11-19T08:59:06;15.60;99.90
27164;DHT22;14685;50.618;7.024;2023-11-19T09:01:33;15.60;99.90
27164;DHT22;14685;50.618;7.024;2023-11-19T09:04:02;15.50;99.90
27164;DHT22;14685;50.618;7.024;2023-11-19T09:06:29;15.60;99.90
27164;DHT22;14685;50.618;7.024;2023-11-19T09:08:56;15.60;99.90
27164;DHT22;14685;50.618;7.024;2023-11-19T09:11:27;15.60;99.90
27164;DHT22;14685;50.618;7.024;2023-11-19T09:13:56;15.60;99.90
27164;DHT22;14685;50.618;7.024;2023-11-19T09:16:24;15.70;99.90
27164;DHT22;14685;50.618;7.024;2023-11-19T09:18:52;15.70;99.90
27164;DHT22;14685;50.618;7.024;2023-11-19T09:21:19;15.70;99.90
27164;DHT22;14685;50.618;7.024;2023-11-19T09:23:46;15.70;99.90
27164;DHT22;14685;50.618;7.024;2023-11-19T09:26:14;15.70;99.90
27164;DHT22;14685;50.618;7.024;2023-11-19T09:28:42;15.80;99.90
27164;DHT22;14685;50.618;7.024;2023-11-19T09:31:16;15.80;99.90
27164;DHT22;14685;50.618;7.024;2023-11-19T09:33:44;15.80;99.90
27164;DHT22;14685;50.618;7.024;2023-11-19T09:36:14;15.80;99.90
27164;DHT22;14685;50.618;7.024;2023-11-19T09:38:44;15.80;99.90
27164;DHT22;14685;50.618;7.024;2023-11-19T09:41:12;15.70;99.90
27164;DHT22;14685;50.618;7.024;2023-11-19T09:43:40;15.70;99.90
27164;DHT22;14685;50.618;7.024;2023-11-19T09:46:13;15.80;99.90
27164;DHT22;14685;50.618;7.024;2023-11-19T09:48:43;15.80;99.90
27164;DHT22;14685;50.618;7.024;2023-11-19T09:51:11;15.70;99.90
27164;DHT22;14685;50.618;7.024;2023-11-19T09:53:39;15.70;99.90
27164;DHT22;14685;50.618;7.024;2023-11-19T09:56:06;15.80;99.90
27164;DHT22;14685;50.618;7.024;2023-11-19T09:58:34;15.70;99.90
27164;DHT22;14685;50.618;7.024;2023-11-19T10:01:01;15.80;99.90
27164;DHT22;14685;50.618;7.024;2023-11-19T10:03:41;15.80;99.90
27164;DHT22;14685;50.618;7.024;2023-11-19T10:06:17;15.80;99.90
27164;DHT22;14685;50.618;7.024;2023-11-19T10:08:45;15.90;99.90
27164;DHT22;14685;50.618;7.024;2023-11-19T10:11:12;15.90;99.90
27164;DHT22;14685;50.618;7.024;2023-11-19T10:13:40;15.90;99.90
27164;DHT22;14685;50.618;7.024;2023-11-19T10:16:11;15.90;99.90
27164;DHT22;14685;50.618;7.024;2023-11-19T10:18:45;15.90;99.90
27164;DHT22;14685;50.618;7.024;2023-11-19T10:21:13;15.90;99.90
27164;DHT22;14685;50.618;7.024;2023-11-19T10:23:54;15.70;99.90
27164;DHT22;14685;50.618;7.024;2023-11-19T10:26:23;15.60;99.90
27164;DHT22;14685;50.618;7.024;2023-11-19T10:28:52;15.50;99.90
27164;DHT22;14685;50.618;7.024;2023-11-19T10:31:20;15.50;99.90
27164;DHT22;14685;50.618;7.024;2023-11-19T10:33:56;15.40;99.90
27164;DHT22;14685;50.618;7.024;2023-11-19T10:36:38;15.30;99.90
27164;DHT22;14685;50.618;7.024;2023-11-19T10:39:07;15.40;99.90
27164;DHT22;14685;50.618;7.024;2023-11-19T10:41:36;15.40;99.90
27164;DHT22;14685;50.618;7.024;2023-11-19T10:44:03;15.50;99.90
27164;DHT22;14685;50.618;7.024;2023-11-19T10:46:41;15.50;99.90
27164;DHT22;14685;50.618;7.024;2023-11-19T10:49:08;15.60;99.90
27164;DHT22;14685;50.618;7.024;2023-11-19T10:51:44;15.60;99.90
27164;DHT22;14685;50.618;7.024;2023-11-19T10:54:13;15.60;99.90
27164;DHT22;14685;50.618;7.024;2023-11-19T10:56:43;15.60;99.90
27164;DHT22;14685;50.618;7.024;2023-11-19T10:59:14;15.70;99.90
27164;DHT22;14685;50.618;7.024;2023-11-19T11:01:45;15.60;99.90
27164;DHT22;14685;50.618;7.024;2023-11-19T11:04:18;15.70;99.90
27164;DHT22;14685;50.618;7.024;2023-11-19T11:06:47;15.70;99.90
27164;DHT22;14685;50.618;7.024;2023-11-19T11:09:15;15.60;99.90
27164;DHT22;14685;50.618;7.024;2023-11-19T11:11:47;15.70;99.90
27164;DHT22;14685;50.618;7.024;2023-11-19T11:14:16;15.70;99.90
27164;DHT22;14685;50.618;7.024;2023-11-19T11:16:46;15.70;99.90
27164;DHT22;14685;50.618;7.024;2023-11-19T11:19:16;15.70;99.90
27164;DHT22;14685;50.618;7.024;2023-11-19T11:21:50;15.70;99.90
27164;DHT22;14685;50.618;7.024;2023-11-19T11:24:44;15.70;99.90
27164;DHT22;14685;50.618;7.024;2023-11-19T11:32:50;15.60;99.90
27164;DHT22;14685;50.618;7.024;2023-11-19T11:35:33;15.60;99.90
27164;DHT22;14685;50.618;7.024;2023-11-19T11:38:07;15.60;99.90
27164;DHT22;14685;50.618;7.024;2023-11-19T11:40:35;15.50;99.90
27164;DHT22;14685;50.618;7.024;2023-11-19T11:49:07;15.40;99.90
27164;DHT22;14685;50.618;7.024;2023-11-19T11:57:07;15.40;99.90
27164;DHT22;14685;50.618;7.024;2023-11-19T12:02:10;15.40;99.90
27164;DHT22;14685;50.618;7.024;2023-11-19T12:04:39;15.40;99.90
27164;DHT22;14685;50.618;7.024;2023-11-19T12:07:10;15.50;99.90
27164;DHT22;14685;50.618;7.024;2023-11-19T12:09:45;15.50;99.90
27164;DHT22;14685;50.618;7.024;2023-11-19T12:17:38;15.70;99.90
27164;DHT22;14685;50.618;7.024;2023-11-19T12:20:07;15.80;99.90
27164;DHT22;14685;50.618;7.024;2023-11-19T12:22:37;15.80;99.90
27164;DHT22;14685;50.618;7.024;2023-11-19T12:25:11;15.90;99.90
27164;DHT22;14685;50.618;7.024;2023-11-19T12:27:45;15.80;99.90
27164;DHT22;14685;50.618;7.024;2023-11-19T12:30:16;15.80;99.90
27164;DHT22;14685;50.618;7.024;2023-11-19T12:32:44;15.70;99.90
27164;DHT22;14685;50.618;7.024;2023-11-19T12:35:12;15.60;99.90
27164;DHT22;14685;50.618;7.024;2023-11-19T12:37:43;15.60;99.90
27164;DHT22;14685;50.618;7.024;2023-11-19T12:40:23;15.50;99.90
27164;DHT22;14685;50.618;7.024;2023-11-19T12:42:52;15.50;99.90
27164;DHT22;14685;50.618;7.024;2023-11-19T12:45:21;15.50;99.90
27164;DHT22;14685;50.618;7.024;2023-11-19T12:48:07;15.50;99.90
27164;DHT22;14685;50.618;7.024;2023-11-19T12:50:56;15.60;99.90
27164;DHT22;14685;50.618;7.024;2023-11-19T12:53:26;15.60;99.90
27164;DHT22;14685;50.618;7.024;2023-11-19T12:55:55;15.60;99.90
27164;DHT22;14685;50.618;7.024;2023-11-19T12:58:33;15.60;99.90
27164;DHT22;14685;50.618;7.024;2023-11-19T13:01:02;15.60;99.90
27164;DHT22;14685;50.618;7.024;2023-11-19T13:03:36;15.70;99.90
27164;DHT22;14685;50.618;7.024;2023-11-19T13:06:06;15.70;99.90
27164;DHT22;14685;50.618;7.024;2023-11-19T13:08:44;15.70;99.90
27164;DHT22;14685;50.618;7.024;2023-11-19T13:11:12;15.70;99.90
27164;DHT22;14685;50.618;7.024;2023-11-19T13:13:57;15.70;99.90
27164;DHT22;14685;50.618;7.024;2023-11-19T13:16:25;15.70;99.90
27164;DHT22;14685;50.618;7.024;2023-11-19T13:18:53;15.70;99.90
27164;DHT22;14685;50.618;7.024;2023-11-19T13:21:20;15.60;99.90
27164;DHT22;14685;50.618;7.024;2023-11-19T13:23:47;15.70;99.90
27164;DHT22;14685;50.618;7.024;2023-11-19T13:26:14;15.70;99.90
27164;DHT22;14685;50.618;7.024;2023-11-19T13:28:41;15.60;99.90
27164;DHT22;14685;50.618;7.024;2023-11-19T13:31:08;15.50;99.90
27164;DHT22;14685;50.618;7.024;2023-11-19T13:33:35;15.50;99.90
27164;DHT22;14685;50.618;7.024;2023-11-19T13:36:04;15.40;99.90
27164;DHT22;14685;50.618;7.024;2023-11-19T13:38:35;15.40;99.90
27164;DHT22;14685;50.618;7.024;2023-11-19T13:41:05;15.50;99.90
27164;DHT22;14685;50.618;7.024;2023-11-19T13:43:39;15.50;99.90
27164;DHT22;14685;50.618;7.024;2023-11-19T13:46:07;15.50;99.90
27164;DHT22;14685;50.618;7.024;2023-11-19T13:48:37;15.50;99.90
27164;DHT22;14685;50.618;7.024;2023-11-19T13:51:06;15.50;99.90
27164;DHT22;14685;50.618;7.024;2023-11-19T13:53:35;15.50;99.90
27164;DHT22;14685;50.618;7.024;2023-11-19T13:56:05;15.50;99.90
27164;DHT22;14685;50.618;7.024;2023-11-19T13:58:34;15.50;99.90
27164;DHT22;14685;50.618;7.024;2023-11-19T14:01:02;15.50;99.90
27164;DHT22;14685;50.618;7.024;2023-11-19T14:03:29;15.50;99.90
27164;DHT22;14685;50.618;7.024;2023-11-19T14:05:56;15.50;99.90
27164;DHT22;14685;50.618;7.024;2023-11-19T14:08:25;15.40;99.90
27164;DHT22;14685;50.618;7.024;2023-11-19T14:10:52;15.50;99.90
27164;DHT22;14685;50.618;7.024;2023-11-19T14:13:23;15.40;99.90
27164;DHT22;14685;50.618;7.024;2023-11-19T14:15:50;15.30;99.90
27164;DHT22;14685;50.618;7.024;2023-11-19T14:18:18;15.30;99.90
27164;DHT22;14685;50.618;7.024;2023-11-19T14:20:45;15.30;99.90
27164;DHT22;14685;50.618;7.024;2023-11-19T14:23:12;15.20;99.90
27164;DHT22;14685;50.618;7.024;2023-11-19T14:25:40;15.20;99.90
27164;DHT22;14685;50.618;7.024;2023-11-19T14:28:07;15.20;99.90
27164;DHT22;14685;50.618;7.024;2023-11-19T14:30:34;15.10;99.90
27164;DHT22;14685;50.618;7.024;2023-11-19T14:33:03;15.10;99.90
27164;DHT22;14685;50.618;7.024;2023-11-19T14:35:32;15.10;99.90
27164;DHT22;14685;50.618;7.024;2023-11-19T14:38:00;15.20;99.90
27164;DHT22;14685;50.618;7.024;2023-11-19T14:40:31;15.10;99.90
27164;DHT22;14685;50.618;7.024;2023-11-19T14:43:01;15.10;99.90
27164;DHT22;14685;50.618;7.024;2023-11-19T14:45:30;15.00;99.90
27164;DHT22;14685;50.618;7.024;2023-11-19T14:48:10;14.90;99.90
27164;DHT22;14685;50.618;7.024;2023-11-19T14:50:37;14.90;99.90
27164;DHT22;14685;50.618;7.024;2023-11-19T14:53:05;14.90;99.90
27164;DHT22;14685;50.618;7.024;2023-11-19T14:55:32;14.90;99.90
27164;DHT22;14685;50.618;7.024;2023-11-19T14:57:59;14.90;99.90
27164;DHT22;14685;50.618;7.024;2023-11-19T15:00:35;14.90;99.90
27164;DHT22;14685;50.618;7.024;2023-11-19T15:03:02;14.90;99.90
27164;DHT22;14685;50.618;7.024;2023-11-19T15:05:29;14.90;99.90
27164;DHT22;14685;50.618;7.024;2023-11-19T15:07:56;14.90;99.90
27164;DHT22;14685;50.618;7.024;2023-11-19T15:10:23;14.80;99.90
27164;DHT22;14685;50.618;7.024;2023-11-19T15:12:52;14.80;99.90
27164;DHT22;14685;50.618;7.024;2023-11-19T15:15:21;14.90;99.90
27164;DHT22;14685;50.618;7.024;2023-11-19T15:17:51;14.90;99.90
27164;DHT22;14685;50.618;7.024;2023-11-19T15:20:18;14.90;99.90
27164;DHT22;14685;50.618;7.024;2023-11-19T15:22:46;14.90;99.90
27164;DHT22;14685;50.618;7.024;2023-11-19T15:25:13;14.80;99.90
27164;DHT22;14685;50.618;7.024;2023-11-19T15:27:41;14.80;99.90
27164;DHT22;14685;50.618;7.024;2023-11-19T15:30:08;14.80;99.90
27164;DHT22;14685;50.618;7.024;2023-11-19T15:32:37;14.80;99.90
27164;DHT22;14685;50.618;7.024;2023-11-19T15:35:06;14.70;99.90
27164;DHT22;14685;50.618;7.024;2023-11-19T15:37:35;14.80;99.90
27164;DHT22;14685;50.618;7.024;2023-11-19T15:40:02;14.80;99.90
27164;DHT22;14685;50.618;7.024;2023-11-19T15:42:36;14.80;99.90
27164;DHT22;14685;50.618;7.024;2023-11-19T15:45:03;14.70;99.90
27164;DHT22;14685;50.618;7.024;2023-11-19T15:47:31;14.70;99.90
27164;DHT22;14685;50.618;7.024;2023-11-19T15:49:59;14.70;99.90
27164;DHT22;14685;50.618;7.024;2023-11-19T15:52:26;14.70;99.90
27164;DHT22;14685;50.618;7.024;2023-11-19T15:54:53;14.60;99.90
27164;DHT22;14685;50.618;7.024;2023-11-19T15:57:25;14.60;99.90
27164;DHT22;14685;50.618;7.024;2023-11-19T15:59:56;14.60;99.90
27164;DHT22;14685;50.618;7.024;2023-11-19T16:02:23;14.50;99.90
27164;DHT22;14685;50.618;7.024;2023-11-19T16:04:50;14.50;99.90
27164;DHT22;14685;50.618;7.024;2023-11-19T16:07:19;14.50;99.90